createdAt,value
2019-04-28T00:00:46.322Z,80.60
2019-04-28T00:03:13.859Z,81.30
2019-04-28T00:05:41.628Z,82.70
2019-04-28T00:08:10.886Z,83.30
2019-04-28T00:10:38.548Z,83.90
2019-04-28T00:13:11.847Z,83.10
2019-04-28T00:15:39.378Z,82.00
2019-04-28T00:18:06.920Z,82.90
2019-04-28T00:20:48.115Z,83.10
2019-04-28T00:23:33.592Z,83.20
2019-04-28T00:26:08.425Z,83.50
2019-04-28T00:28:36.306Z,83.10
2019-04-28T00:31:03.845Z,82.40
2019-04-28T00:33:31.499Z,81.50
2019-04-28T00:35:59.132Z,82.20
2019-04-28T00:38:26.660Z,82.20
2019-04-28T00:40:54.197Z,81.40
2019-04-28T00:43:22.024Z,81.80
2019-04-28T00:45:51.209Z,80.90
2019-04-28T00:48:20.842Z,79.80
2019-04-28T00:50:48.149Z,80.80
2019-04-28T00:53:15.704Z,80.20
2019-04-28T00:55:43.240Z,80.10
2019-04-28T00:58:10.941Z,80.60
2019-04-28T01:00:41.414Z,81.20
2019-04-28T01:03:09.412Z,80.40
2019-04-28T01:05:37.016Z,80.70
2019-04-28T01:08:04.568Z,81.00
2019-04-28T01:10:32.104Z,81.70
2019-04-28T01:12:59.649Z,80.30
2019-04-28T01:15:31.248Z,81.10
2019-04-28T01:18:06.401Z,81.80
2019-04-28T01:20:33.923Z,82.30
2019-04-28T01:23:01.472Z,82.40
2019-04-28T01:25:29.859Z,83.00
2019-04-28T01:28:00.110Z,84.70
2019-04-28T01:30:29.953Z,82.60
2019-04-28T01:33:05.225Z,82.80
2019-04-28T01:35:32.756Z,81.60
2019-04-28T01:38:00.280Z,81.90
2019-04-28T01:40:27.824Z,81.70
2019-04-28T01:42:55.353Z,80.40
2019-04-28T01:45:22.896Z,81.30
2019-04-28T01:47:50.569Z,81.70
2019-04-28T01:50:20.276Z,81.90
2019-04-28T01:52:47.408Z,81.60
2019-04-28T01:55:14.943Z,81.80
2019-04-28T01:57:42.478Z,82.00
2019-04-28T02:00:22.183Z,81.70
2019-04-28T02:02:40.929Z,82.40
2019-04-28T02:05:09.709Z,81.80
2019-04-28T02:07:37.386Z,81.00
2019-04-28T02:10:05.260Z,81.20
2019-04-28T02:12:32.796Z,79.70
2019-04-28T02:15:01.223Z,78.60
2019-04-28T02:17:30.495Z,79.80
2019-04-28T02:20:00.425Z,79.70
2019-04-28T02:22:35.348Z,78.20
2019-04-28T02:25:03.189Z,79.80
2019-04-28T02:27:30.734Z,80.80
2019-04-28T02:29:59.947Z,80.20
2019-04-28T02:32:30.660Z,80.80
2019-04-28T02:34:56.797Z,79.50
2019-04-28T02:37:24.358Z,78.10
2019-04-28T02:39:51.868Z,79.50
2019-04-28T02:42:20.839Z,79.20
2019-04-28T02:44:50.386Z,78.90
2019-04-28T02:47:17.922Z,78.20
2019-04-28T02:49:50.457Z,77.90
2019-04-28T02:52:22.736Z,78.50
2019-04-28T02:54:50.909Z,79.90
2019-04-28T02:57:20.850Z,79.50
2019-04-28T02:59:50.574Z,79.20
2019-04-28T03:02:17.112Z,79.20
2019-04-28T03:04:44.640Z,78.70
2019-04-28T03:07:14.593Z,78.90
2019-04-28T03:09:41.440Z,77.60
2019-04-28T03:12:11.244Z,77.60
2019-04-28T03:14:43.459Z,76.80
2019-04-28T03:17:07.497Z,78.50
2019-04-28T03:19:35.308Z,77.00
2019-04-28T03:22:02.846Z,76.90
2019-04-28T03:24:31.615Z,76.80
2019-04-28T03:27:03.585Z,77.20
2019-04-28T03:29:32.049Z,76.40
2019-04-28T03:32:31.159Z,77.60
2019-04-28T03:34:53.780Z,76.40
2019-04-28T03:37:23.613Z,76.40
2019-04-28T03:39:50.399Z,77.10
2019-04-28T03:42:17.437Z,78.10
2019-04-28T03:44:44.985Z,79.60
2019-04-28T03:47:12.530Z,79.20
2019-04-28T03:49:43.038Z,79.70
2019-04-28T03:52:10.702Z,78.60
2019-04-28T03:54:40.997Z,77.60
2019-04-28T03:57:08.144Z,78.10
2019-04-28T03:59:37.397Z,77.50
2019-04-28T04:02:04.945Z,78.30
2019-04-28T04:04:32.474Z,77.10
2019-04-28T04:07:01.508Z,78.50
2019-04-28T04:09:31.314Z,78.30
2019-04-28T04:12:17.334Z,77.20
2019-04-28T04:14:46.518Z,77.10
2019-04-28T04:17:15.684Z,77.00
2019-04-28T04:19:43.229Z,76.80
2019-04-28T04:22:10.761Z,76.80
2019-04-28T04:24:40.367Z,77.70
2019-04-28T04:27:10.536Z,76.70
2019-04-28T04:29:37.149Z,76.80
2019-04-28T04:32:15.852Z,77.70
2019-04-28T04:34:34.256Z,77.10
2019-04-28T04:37:01.788Z,77.70
2019-04-28T04:39:30.356Z,77.00
2019-04-28T04:42:00.484Z,76.50
2019-04-28T04:44:27.310Z,75.60
2019-04-28T04:46:54.844Z,75.90
2019-04-28T04:49:22.385Z,76.00
2019-04-28T04:51:50.868Z,76.60
2019-04-28T04:54:20.454Z,76.00
2019-04-28T04:56:50.022Z,75.90
2019-04-28T04:59:17.257Z,76.30
2019-04-28T05:01:46.779Z,76.80
2019-04-28T05:04:15.956Z,76.50
2019-04-28T05:06:43.487Z,76.80
2019-04-28T05:09:11.040Z,76.60
2019-04-28T05:11:40.013Z,78.00
2019-04-28T05:14:11.617Z,77.20
2019-04-28T05:16:37.152Z,77.50
2019-04-28T05:19:04.696Z,77.90
2019-04-28T05:21:33.424Z,77.50
2019-04-28T05:24:20.861Z,77.20
2019-04-28T05:26:51.428Z,77.80
2019-04-28T05:29:21.759Z,77.90
2019-04-28T05:31:47.979Z,78.70
2019-04-28T05:34:15.596Z,77.80
2019-04-28T05:36:44.655Z,78.70
2019-04-28T05:39:12.404Z,77.30
2019-04-28T05:41:40.141Z,78.00
2019-04-28T05:44:09.838Z,77.70
2019-04-28T05:46:37.452Z,77.00
2019-04-28T05:49:06.628Z,78.10
2019-04-28T05:51:42.097Z,77.10
2019-04-28T05:54:27.544Z,77.60
2019-04-28T05:57:11.676Z,77.90
2019-04-28T05:59:43.532Z,77.30
2019-04-28T06:02:12.720Z,77.90
2019-04-28T06:04:40.614Z,76.70
2019-04-28T06:07:10.117Z,77.40
2019-04-28T06:09:42.019Z,79.20
2019-04-28T06:12:11.200Z,80.70
2019-04-28T06:14:40.289Z,81.60
2019-04-28T06:17:08.034Z,81.60
2019-04-28T06:19:35.857Z,80.40
2019-04-28T06:22:03.709Z,79.60
2019-04-28T06:24:31.285Z,79.20
2019-04-28T06:26:59.133Z,78.40
2019-04-28T06:29:26.661Z,78.00
2019-04-28T06:31:54.287Z,81.20
2019-04-28T06:34:21.799Z,79.60
2019-04-28T06:36:49.348Z,78.50
2019-04-28T06:39:16.948Z,76.50
2019-04-28T06:41:44.488Z,76.60
2019-04-28T06:44:12.068Z,75.30
2019-04-28T06:46:39.622Z,76.00
2019-04-28T06:49:07.152Z,74.70
2019-04-28T06:51:34.685Z,75.30
2019-04-28T06:54:02.344Z,75.90
2019-04-28T06:56:29.888Z,76.30
2019-04-28T06:58:59.325Z,77.40
2019-04-28T07:01:26.688Z,78.90
2019-04-28T07:03:54.216Z,81.10
2019-04-28T07:06:21.757Z,81.50
2019-04-28T07:08:49.281Z,82.40
2019-04-28T07:11:16.819Z,82.30
2019-04-28T07:13:44.360Z,82.70
2019-04-28T07:16:12.001Z,83.40
2019-04-28T07:18:39.529Z,83.10
2019-04-28T07:21:08.709Z,82.50
2019-04-28T07:23:37.617Z,81.70
2019-04-28T07:26:05.417Z,82.50
2019-04-28T07:28:33.003Z,83.00
2019-04-28T07:31:00.796Z,83.00
2019-04-28T07:33:35.847Z,83.10
2019-04-28T07:35:57.880Z,80.10
2019-04-28T07:38:25.479Z,81.60
2019-04-28T07:40:53.008Z,82.40
2019-04-28T07:43:20.564Z,80.00
2019-04-28T07:45:49.548Z,81.10
2019-04-28T07:48:17.132Z,79.50
2019-04-28T07:50:44.673Z,80.90
2019-04-28T07:53:19.601Z,80.40
2019-04-28T07:55:47.128Z,79.00
2019-04-28T07:58:14.679Z,75.70
2019-04-28T08:00:42.290Z,77.20
2019-04-28T08:03:09.843Z,72.00
2019-04-28T08:05:37.376Z,71.20
2019-04-28T08:08:04.940Z,71.80
2019-04-28T08:10:32.472Z,69.60
2019-04-28T08:13:00.280Z,68.00
2019-04-28T08:15:27.852Z,65.90
2019-04-28T08:17:55.424Z,65.80
2019-04-28T08:20:22.977Z,66.80
2019-04-28T08:22:50.523Z,67.70
2019-04-28T08:25:18.089Z,69.20
2019-04-28T08:27:45.667Z,69.80
2019-04-28T08:30:13.236Z,69.00
2019-04-28T08:32:54.124Z,67.80
2019-04-28T08:35:21.752Z,65.60
2019-04-28T08:37:49.296Z,65.80
2019-04-28T08:40:16.833Z,64.00
2019-04-28T08:42:44.408Z,62.20
2019-04-28T08:45:11.972Z,88.40
2019-04-28T08:47:39.617Z,96.00
2019-04-28T08:50:07.525Z,91.60
2019-04-28T08:52:35.062Z,88.70
2019-04-28T08:55:03.470Z,77.50
2019-04-28T08:57:31.045Z,62.50
2019-04-28T08:59:58.581Z,52.20
2019-04-28T09:02:26.157Z,55.90
2019-04-28T09:04:53.990Z,57.50
2019-04-28T09:07:21.582Z,57.40
2019-04-28T09:09:49.217Z,58.70
2019-04-28T09:12:16.996Z,61.30
2019-04-28T09:14:44.555Z,61.40
2019-04-28T09:17:12.099Z,60.20
2019-04-28T09:19:42.340Z,59.50
2019-04-28T09:22:08.908Z,60.20
2019-04-28T09:24:36.460Z,62.00
2019-04-28T09:27:04.278Z,61.00
2019-04-28T09:29:31.825Z,61.60
2019-04-28T09:31:59.404Z,59.30
2019-04-28T09:34:28.509Z,58.60
2019-04-28T09:36:56.300Z,56.20
2019-04-28T09:39:42.094Z,54.20
2019-04-28T09:42:27.715Z,51.40
2019-04-28T09:44:55.406Z,48.10
2019-04-28T09:47:22.985Z,49.40
2019-04-28T09:49:50.804Z,51.20
2019-04-28T09:52:18.367Z,52.80
2019-04-28T09:54:45.965Z,55.80
2019-04-28T09:57:13.491Z,56.00
2019-04-28T09:59:41.104Z,56.70
2019-04-28T10:02:08.633Z,56.70
2019-04-28T10:04:41.626Z,55.70
2019-04-28T10:07:05.538Z,56.90
2019-04-28T10:09:33.437Z,57.60
2019-04-28T10:12:01.012Z,59.30
2019-04-28T10:14:28.561Z,56.70
2019-04-28T10:16:56.106Z,57.70
2019-04-28T10:19:23.654Z,55.70
2019-04-28T10:21:51.251Z,53.50
2019-04-28T10:24:18.800Z,52.00
2019-04-28T10:26:46.540Z,49.70
2019-04-28T10:29:14.165Z,49.40
2019-04-28T10:31:41.747Z,50.50
2019-04-28T10:34:09.415Z,48.90
2019-04-28T10:36:36.941Z,47.90
2019-04-28T10:39:24.264Z,46.70
2019-04-28T10:41:51.818Z,45.80
2019-04-28T10:44:19.545Z,44.10
2019-04-28T10:46:47.352Z,45.10
2019-04-28T10:49:14.904Z,45.40
2019-04-28T10:51:42.460Z,46.20
2019-04-28T10:54:10.056Z,46.50
2019-04-28T10:56:37.594Z,48.50
2019-04-28T10:59:05.248Z,48.70
2019-04-28T11:01:32.812Z,48.80
2019-04-28T11:04:04.980Z,47.90
2019-04-28T11:06:32.617Z,47.40
2019-04-28T11:09:01.816Z,49.40
2019-04-28T11:11:29.348Z,50.20
2019-04-28T11:13:56.972Z,74.30
2019-04-28T11:16:26.421Z,64.90
2019-04-28T11:18:53.960Z,58.10
2019-04-28T11:21:21.530Z,58.90
2019-04-28T11:23:49.112Z,55.00
2019-04-28T11:26:16.694Z,63.40
2019-04-28T11:28:44.257Z,45.30
2019-04-28T11:31:12.085Z,44.80
2019-04-28T11:33:52.773Z,45.60
2019-04-28T11:36:21.894Z,46.20
2019-04-28T11:38:49.424Z,47.00
2019-04-28T11:41:16.972Z,45.30
2019-04-28T11:43:44.503Z,45.90
2019-04-28T11:46:13.702Z,45.50
2019-04-28T11:48:41.224Z,46.70
2019-04-28T11:51:08.769Z,59.20
2019-04-28T11:53:36.300Z,51.90
2019-04-28T11:56:04.188Z,50.30
2019-04-28T11:58:31.725Z,50.80
2019-04-28T12:00:59.440Z,51.90
2019-04-28T12:03:27.074Z,51.30
2019-04-28T12:05:54.648Z,50.90
2019-04-28T12:08:22.233Z,51.60
2019-04-28T12:11:07.955Z,51.60
2019-04-28T12:13:37.112Z,52.40
2019-04-28T12:16:22.666Z,51.50
2019-04-28T12:18:51.900Z,51.30
2019-04-28T12:21:19.444Z,52.50
2019-04-28T12:23:47.271Z,51.00
2019-04-28T12:26:14.830Z,51.60
2019-04-28T12:28:42.585Z,52.50
2019-04-28T12:31:10.189Z,49.70
2019-04-28T12:33:37.893Z,48.50
2019-04-28T12:36:07.209Z,49.10
2019-04-28T12:38:38.262Z,47.90
2019-04-28T12:41:05.832Z,49.00
2019-04-28T12:43:33.435Z,51.60
2019-04-28T12:46:01.075Z,53.10
2019-04-28T12:48:28.643Z,51.30
2019-04-28T12:50:56.213Z,53.70
2019-04-28T12:53:24.270Z,54.70
2019-04-28T12:55:52.025Z,54.70
2019-04-28T12:58:19.619Z,55.10
2019-04-28T13:01:05.409Z,56.00
2019-04-28T13:03:34.962Z,53.90
2019-04-28T13:06:05.976Z,55.10
2019-04-28T13:08:33.488Z,54.70
2019-04-28T13:11:01.361Z,55.00
2019-04-28T13:13:29.139Z,56.30
2019-04-28T13:15:56.708Z,55.90
2019-04-28T13:18:24.276Z,55.80
2019-04-28T13:20:51.858Z,53.60
2019-04-28T13:23:19.440Z,52.50
2019-04-28T13:25:47.137Z,54.00
2019-04-28T13:28:14.670Z,50.80
2019-04-28T13:30:42.242Z,51.80
2019-04-28T13:33:09.786Z,50.50
2019-04-28T13:35:37.596Z,51.50
2019-04-28T13:38:05.158Z,51.60
2019-04-28T13:40:36.977Z,51.70
2019-04-28T13:43:04.609Z,52.80
2019-04-28T13:45:32.149Z,51.70
2019-04-28T13:47:59.732Z,51.10
2019-04-28T13:50:31.620Z,49.70
2019-04-28T13:52:59.173Z,51.10
2019-04-28T13:55:28.355Z,51.40
2019-04-28T13:57:57.705Z,49.60
2019-04-28T14:00:26.879Z,51.60
2019-04-28T14:03:08.677Z,52.80
2019-04-28T14:05:46.886Z,51.10
2019-04-28T14:08:14.458Z,51.20
2019-04-28T14:10:41.989Z,50.90
2019-04-28T14:13:09.562Z,49.00
2019-04-28T14:15:37.150Z,50.20
2019-04-28T14:18:04.724Z,51.80
2019-04-28T14:20:32.357Z,52.50
2019-04-28T14:22:59.972Z,52.20
2019-04-28T14:25:27.613Z,51.60
2019-04-28T14:27:55.491Z,49.00
2019-04-28T14:30:23.033Z,50.00
2019-04-28T14:32:50.627Z,49.50
2019-04-28T14:35:18.257Z,48.80
2019-04-28T14:37:45.945Z,50.60
2019-04-28T14:40:13.559Z,50.00
2019-04-28T14:42:41.187Z,51.10
2019-04-28T14:45:08.890Z,50.30
2019-04-28T14:47:36.432Z,50.40
2019-04-28T14:50:04.574Z,50.10
2019-04-28T14:52:32.203Z,50.50
2019-04-28T14:54:59.838Z,51.30
2019-04-28T14:57:27.411Z,50.50
2019-04-28T14:59:54.956Z,51.80
2019-04-28T15:02:31.303Z,52.10
2019-04-28T15:05:00.491Z,53.10
2019-04-28T15:07:46.868Z,53.50
2019-04-28T15:10:16.050Z,53.40
2019-04-28T15:12:43.615Z,54.00
2019-04-28T15:15:11.677Z,57.50
2019-04-28T15:17:39.251Z,58.60
2019-04-28T15:20:07.035Z,58.90
2019-04-28T15:22:34.861Z,59.00
2019-04-28T15:25:02.407Z,55.80
2019-04-28T15:27:29.964Z,59.40
2019-04-28T15:29:57.859Z,57.70
2019-04-28T15:32:25.425Z,54.40
2019-04-28T15:34:52.998Z,55.40
2019-04-28T15:37:20.637Z,55.10
2019-04-28T15:39:48.217Z,54.70
2019-04-28T15:42:15.766Z,52.90
2019-04-28T15:44:43.308Z,53.10
2019-04-28T15:47:10.866Z,51.70
2019-04-28T15:49:38.402Z,54.00
2019-04-28T15:52:06.321Z,53.30
2019-04-28T15:54:33.848Z,52.40
2019-04-28T15:57:01.412Z,50.50
2019-04-28T15:59:28.953Z,51.40
2019-04-28T16:01:56.835Z,52.50
2019-04-28T16:04:24.380Z,53.40
2019-04-28T16:06:51.935Z,49.70
2019-04-28T16:09:19.496Z,50.60
2019-04-28T16:11:47.200Z,53.20
2019-04-28T16:14:14.856Z,55.70
2019-04-28T16:16:47.949Z,58.10
2019-04-28T16:19:16.113Z,58.90
2019-04-28T16:21:43.659Z,61.80
2019-04-28T16:24:11.203Z,61.90
2019-04-28T16:26:38.749Z,62.00
2019-04-28T16:29:06.297Z,63.60
2019-04-28T16:31:33.836Z,66.10
2019-04-28T16:34:01.401Z,69.50
2019-04-28T16:36:28.934Z,73.10
2019-04-28T16:38:56.783Z,76.20
2019-04-28T16:41:24.324Z,75.40
2019-04-28T16:43:51.882Z,77.70
2019-04-28T16:46:19.444Z,77.70
2019-04-28T16:48:47.333Z,76.50
2019-04-28T16:51:14.864Z,77.40
2019-04-28T16:53:42.426Z,77.20
2019-04-28T16:56:20.520Z,77.00
2019-04-28T16:59:04.896Z,78.50
2019-04-28T17:01:49.462Z,78.60
2019-04-28T17:04:17.060Z,78.50
2019-04-28T17:06:44.595Z,78.10
2019-04-28T17:09:13.018Z,77.00
2019-04-28T17:11:40.840Z,77.30
2019-04-28T17:14:08.404Z,79.30
2019-04-28T17:16:35.933Z,99.90
2019-04-28T17:19:03.480Z,75.90
2019-04-28T17:21:31.274Z,71.90
2019-04-28T17:23:58.821Z,71.80
2019-04-28T17:26:26.359Z,72.80
2019-04-28T17:28:53.896Z,73.70
2019-04-28T17:31:21.436Z,74.70
2019-04-28T17:33:49.013Z,72.80
2019-04-28T17:36:16.548Z,70.80
2019-04-28T17:38:44.092Z,73.10
2019-04-28T17:41:11.631Z,73.70
2019-04-28T17:43:39.180Z,75.40
2019-04-28T17:46:07.184Z,73.20
2019-04-28T17:48:45.157Z,90.50
2019-04-28T17:51:12.946Z,74.30
2019-04-28T17:53:40.819Z,76.50
2019-04-28T17:56:08.367Z,84.20
2019-04-28T17:58:35.916Z,85.30
2019-04-28T18:01:21.553Z,85.80
2019-04-28T18:03:53.449Z,82.60
2019-04-28T18:06:28.076Z,81.90
2019-04-28T18:08:55.621Z,82.00
2019-04-28T18:11:23.245Z,85.30
2019-04-28T18:13:51.037Z,84.90
2019-04-28T18:16:29.373Z,82.80
2019-04-28T18:19:07.244Z,84.50
2019-04-28T18:21:34.788Z,82.90
2019-04-28T18:24:02.380Z,81.70
2019-04-28T18:26:30.185Z,82.20
2019-04-28T18:28:57.735Z,87.90
2019-04-28T18:31:35.780Z,88.00
2019-04-28T18:34:07.683Z,88.60
2019-04-28T18:36:36.860Z,88.70
2019-04-28T18:39:23.584Z,89.10
2019-04-28T18:42:01.677Z,87.10
2019-04-28T18:44:29.325Z,87.20
2019-04-28T18:46:56.858Z,86.10
2019-04-28T18:49:24.408Z,85.60
2019-04-28T18:51:51.948Z,84.50
2019-04-28T18:54:19.500Z,84.20
2019-04-28T18:56:47.036Z,84.50
2019-04-28T18:59:14.580Z,85.80
2019-04-28T19:01:43.766Z,84.70
2019-04-28T19:04:11.341Z,85.40
2019-04-28T19:06:38.880Z,85.50
2019-04-28T19:09:24.756Z,86.40
2019-04-28T19:11:53.932Z,85.80
2019-04-28T19:14:23.128Z,86.50
2019-04-28T19:17:04.629Z,86.80
2019-04-28T19:19:33.850Z,86.90
2019-04-28T19:22:01.695Z,86.00
2019-04-28T19:24:29.298Z,86.40
2019-04-28T19:26:56.818Z,86.50
2019-04-28T19:29:24.364Z,86.00
2019-04-28T19:31:51.905Z,86.20
2019-04-28T19:34:19.455Z,86.00
2019-04-28T19:36:46.985Z,86.20
2019-04-28T19:39:14.530Z,84.60
2019-04-28T19:41:42.064Z,84.90
2019-04-28T19:44:09.866Z,85.30
2019-04-28T19:46:37.400Z,84.60
2019-04-28T19:49:05.217Z,84.50
2019-04-28T19:51:33.169Z,85.20
2019-04-28T19:54:00.872Z,86.00
2019-04-28T19:56:36.072Z,84.70
2019-04-28T19:59:19.917Z,83.90
2019-04-28T20:01:47.519Z,85.40
2019-04-28T20:04:15.342Z,85.10
2019-04-28T20:06:42.922Z,83.20
2019-04-28T20:09:10.502Z,84.50
2019-04-28T20:11:38.085Z,85.80
2019-04-28T20:14:05.722Z,85.80
2019-04-28T20:16:33.307Z,85.90
2019-04-28T20:19:00.999Z,84.20
2019-04-28T20:21:28.604Z,82.50
2019-04-28T20:23:56.162Z,84.00
2019-04-28T20:26:28.934Z,84.00
2019-04-28T20:28:56.502Z,86.40
2019-04-28T20:31:24.363Z,85.90
2019-04-28T20:33:51.956Z,85.90
2019-04-28T20:36:21.172Z,85.40
2019-04-28T20:38:50.413Z,87.00
2019-04-28T20:41:22.452Z,88.40
2019-04-28T20:43:50.917Z,87.70
2019-04-28T20:46:18.792Z,87.10
2019-04-28T20:48:46.328Z,88.80
2019-04-28T20:51:14.217Z,86.50
2019-04-28T20:53:41.753Z,86.70
2019-04-28T20:56:09.308Z,85.20
2019-04-28T20:58:37.195Z,83.80
2019-04-28T21:01:05.065Z,84.00
2019-04-28T21:03:32.824Z,87.00
2019-04-28T21:06:00.519Z,85.20
2019-04-28T21:08:28.135Z,80.90
2019-04-28T21:10:55.789Z,81.70
2019-04-28T21:13:23.397Z,83.70
2019-04-28T21:15:50.990Z,81.90
2019-04-28T21:18:18.617Z,84.50
2019-04-28T21:20:46.349Z,84.30
2019-04-28T21:23:14.014Z,85.90
2019-04-28T21:25:41.617Z,86.20
2019-04-28T21:28:09.185Z,84.90
2019-04-28T21:30:36.769Z,85.70
2019-04-28T21:33:04.417Z,85.10
2019-04-28T21:35:33.565Z,86.10
2019-04-28T21:38:08.566Z,86.20
2019-04-28T21:40:42.448Z,83.70
2019-04-28T21:43:28.471Z,85.90
2019-04-28T21:45:57.887Z,99.90
2019-04-28T21:48:43.296Z,99.90
2019-04-28T21:51:12.293Z,99.90
2019-04-28T21:53:40.484Z,93.50
2019-04-28T21:56:08.076Z,72.50
2019-04-28T21:58:35.892Z,71.10
2019-04-28T22:01:04.042Z,73.90
2019-04-28T22:03:31.621Z,78.00
2019-04-28T22:08:35.033Z,81.40
2019-04-28T22:11:03.077Z,81.60
2019-04-28T22:13:32.753Z,82.20
2019-04-28T22:16:00.702Z,83.20
2019-04-28T22:18:28.272Z,82.50
2019-04-28T22:20:57.962Z,82.50
2019-04-28T22:23:30.381Z,84.50
2019-04-28T22:25:57.934Z,87.50
2019-04-28T22:28:25.485Z,88.20
2019-04-28T22:30:53.125Z,88.00
2019-04-28T22:33:20.680Z,86.90
2019-04-28T22:35:48.534Z,87.50
2019-04-28T22:38:16.093Z,86.80
2019-04-28T22:40:43.630Z,86.50
2019-04-28T22:43:11.238Z,86.00
2019-04-28T22:45:38.770Z,86.20
2019-04-28T22:48:07.588Z,86.40
2019-04-28T22:50:35.905Z,86.40
2019-04-28T22:53:03.455Z,85.90
2019-04-28T22:55:33.300Z,86.20
2019-04-28T22:58:17.377Z,85.80
2019-04-28T23:00:46.573Z,86.80
2019-04-28T23:03:30.555Z,86.10
2019-04-28T23:05:58.383Z,83.50
2019-04-28T23:08:25.932Z,84.90
2019-04-28T23:10:53.468Z,84.70
2019-04-28T23:13:21.089Z,84.70
2019-04-28T23:15:48.627Z,84.40
2019-04-28T23:18:16.200Z,82.80
2019-04-28T23:20:45.672Z,83.00
2019-04-28T23:23:13.248Z,84.40
2019-04-28T23:25:40.785Z,83.10
2019-04-28T23:28:08.332Z,83.20
2019-04-28T23:30:40.174Z,81.80
2019-04-28T23:33:07.720Z,82.00
2019-04-28T23:35:35.281Z,84.40
2019-04-28T23:38:02.835Z,83.70
2019-04-28T23:40:30.368Z,83.70
2019-04-28T23:43:02.613Z,81.50
2019-04-28T23:45:30.148Z,81.40
2019-04-28T23:47:57.757Z,81.60
2019-04-28T23:50:35.563Z,82.20
2019-04-28T23:53:04.766Z,81.60
2019-04-28T23:55:32.304Z,80.70
2019-04-28T23:57:59.881Z,82.60
